createdAt,value
2022-09-13T00:01:13.361Z,14.32
2022-09-13T00:03:41.172Z,14.55
2022-09-13T00:06:18.976Z,14.41
2022-09-13T00:08:48.034Z,14.13
2022-09-13T00:11:23.355Z,14.32
2022-09-13T00:13:52.001Z,14.45
2022-09-13T00:16:22.706Z,14.52
2022-09-13T00:18:51.500Z,14.45
2022-09-13T00:21:21.902Z,14.22
2022-09-13T00:23:53.170Z,14.27
2022-09-13T00:26:27.306Z,14.22
2022-09-13T00:28:59.433Z,14.23
2022-09-13T00:31:29.116Z,13.92
2022-09-13T00:34:00.049Z,14.09
2022-09-13T00:36:27.987Z,14.11
2022-09-13T00:38:55.747Z,14.19
2022-09-13T00:41:23.619Z,14.36
2022-09-13T00:43:56.084Z,14.13
2022-09-13T00:46:44.377Z,14.13
2022-09-13T00:49:38.630Z,14.06
2022-09-13T00:52:12.164Z,13.89
2022-09-13T00:54:53.295Z,14.01
2022-09-13T00:57:22.441Z,13.96
2022-09-13T01:00:14.089Z,13.92
2022-09-13T01:02:56.170Z,13.92
2022-09-13T01:05:30.903Z,13.81
2022-09-13T01:08:00.306Z,13.75
2022-09-13T01:10:31.759Z,13.74
2022-09-13T01:13:13.130Z,13.71
2022-09-13T01:15:44.510Z,13.68
2022-09-13T01:18:12.675Z,13.50
2022-09-13T01:21:17.636Z,13.62
2022-09-13T01:24:35.036Z,13.71
2022-09-13T01:27:29.355Z,13.70
2022-09-13T01:30:19.408Z,13.54
2022-09-13T01:33:27.011Z,13.58
2022-09-13T01:36:12.557Z,13.66
2022-09-13T01:38:51.290Z,13.68
2022-09-13T01:41:55.497Z,13.68
2022-09-13T01:44:34.618Z,13.66
2022-09-13T01:47:37.218Z,13.67
2022-09-13T01:50:22.192Z,13.66
2022-09-13T01:53:08.704Z,13.29
2022-09-13T01:55:46.795Z,13.24
2022-09-13T01:58:17.541Z,13.19
2022-09-13T02:01:16.613Z,13.24
2022-09-13T02:04:24.333Z,13.24
2022-09-13T02:07:17.933Z,13.25
2022-09-13T02:09:52.319Z,13.31
2022-09-13T02:12:24.538Z,13.25
2022-09-13T02:15:28.108Z,13.16
2022-09-13T02:18:09.204Z,13.18
2022-09-13T02:20:44.217Z,13.18
2022-09-13T02:23:19.789Z,13.24
2022-09-13T02:25:51.377Z,13.16
2022-09-13T02:28:28.786Z,13.07
2022-09-13T02:30:59.398Z,13.07
2022-09-13T02:33:43.737Z,12.99
2022-09-13T02:36:23.027Z,13.07
2022-09-13T02:38:57.241Z,13.09
2022-09-13T02:41:53.884Z,13.20
2022-09-13T02:44:39.118Z,13.27
2022-09-13T02:47:54.837Z,13.33
2022-09-13T02:50:57.634Z,13.34
2022-09-13T02:53:43.988Z,13.27
2022-09-13T02:56:18.179Z,13.23
2022-09-13T02:59:17.503Z,13.11
2022-09-13T03:02:12.296Z,12.99
2022-09-13T03:04:40.671Z,12.97
2022-09-13T03:07:14.807Z,13.14
2022-09-13T03:10:12.002Z,13.11
2022-09-13T03:13:10.851Z,13.08
2022-09-13T03:15:53.533Z,13.11
2022-09-13T03:18:30.020Z,13.21
2022-09-13T03:21:09.471Z,13.23
2022-09-13T03:23:58.636Z,13.24
2022-09-13T03:26:47.057Z,13.22
2022-09-13T03:29:33.623Z,13.18
2022-09-13T03:32:25.211Z,13.25
2022-09-13T03:35:37.465Z,13.16
2022-09-13T03:38:33.096Z,13.07
2022-09-13T03:41:09.718Z,13.07
2022-09-13T03:43:53.133Z,13.01
2022-09-13T03:46:27.422Z,12.99
2022-09-13T03:48:58.525Z,12.91
2022-09-13T03:51:27.229Z,12.87
2022-09-13T03:54:01.800Z,12.99
2022-09-13T03:56:29.662Z,13.00
2022-09-13T03:58:57.590Z,13.02
2022-09-13T04:01:26.179Z,12.99
2022-09-13T04:03:56.771Z,13.14
2022-09-13T04:06:25.215Z,13.16
2022-09-13T04:08:53.117Z,13.13
2022-09-13T04:11:24.138Z,13.00
2022-09-13T04:13:52.774Z,12.99
2022-09-13T04:16:20.551Z,13.02
2022-09-13T04:18:48.368Z,13.05
2022-09-13T04:21:16.694Z,12.98
2022-09-13T04:23:44.473Z,13.01
2022-09-13T04:26:12.268Z,13.10
2022-09-13T04:28:39.984Z,13.02
2022-09-13T04:31:08.283Z,13.03
2022-09-13T04:33:36.961Z,13.13
2022-09-13T04:36:04.937Z,13.03
2022-09-13T04:38:32.772Z,13.03
2022-09-13T04:41:00.550Z,13.00
2022-09-13T04:43:28.455Z,12.96
2022-09-13T04:46:01.516Z,12.91
2022-09-13T04:48:29.604Z,12.97
2022-09-13T04:51:06.799Z,12.92
2022-09-13T04:53:34.874Z,13.00
2022-09-13T04:56:04.173Z,13.03
2022-09-13T04:58:33.010Z,13.02
2022-09-13T05:01:09.458Z,13.03
2022-09-13T05:03:38.042Z,13.13
2022-09-13T05:06:17.909Z,13.13
2022-09-13T05:08:52.079Z,13.14
2022-09-13T05:11:20.332Z,13.12
2022-09-13T05:13:54.781Z,13.09
2022-09-13T05:16:24.757Z,13.13
2022-09-13T05:18:53.591Z,13.21
2022-09-13T05:21:21.809Z,13.20
2022-09-13T05:23:51.617Z,13.18
2022-09-13T05:26:19.725Z,13.20
2022-09-13T05:28:47.813Z,13.21
2022-09-13T05:31:26.067Z,13.20
2022-09-13T05:34:00.907Z,13.18
2022-09-13T05:36:29.274Z,13.02
2022-09-13T05:39:19.221Z,12.94
2022-09-13T05:41:46.156Z,13.00
2022-09-13T05:44:14.097Z,13.13
2022-09-13T05:46:43.418Z,13.20
2022-09-13T05:49:13.869Z,13.28
2022-09-13T05:51:41.801Z,13.31
2022-09-13T05:54:12.939Z,13.41
2022-09-13T05:56:41.048Z,13.48
2022-09-13T05:59:13.868Z,13.48
2022-09-13T06:01:42.310Z,13.56
2022-09-13T06:04:12.472Z,13.60
2022-09-13T06:06:40.484Z,13.65
2022-09-13T06:09:09.369Z,13.60
2022-09-13T06:11:37.152Z,13.64
2022-09-13T06:14:05.166Z,13.63
2022-09-13T06:16:33.130Z,13.72
2022-09-13T06:19:01.094Z,13.76
2022-09-13T06:21:29.440Z,13.74
2022-09-13T06:23:57.754Z,13.82
2022-09-13T06:26:28.550Z,13.87
2022-09-13T06:28:58.354Z,13.98
2022-09-13T06:31:28.866Z,14.02
2022-09-13T06:34:04.757Z,14.11
2022-09-13T06:36:32.598Z,14.13
2022-09-13T06:39:01.823Z,14.17
2022-09-13T06:41:29.663Z,14.13
2022-09-13T06:43:59.753Z,14.23
2022-09-13T06:46:30.629Z,14.30
2022-09-13T06:49:05.035Z,14.37
2022-09-13T06:51:34.738Z,14.44
2022-09-13T06:54:03.957Z,14.50
2022-09-13T06:56:37.531Z,14.64
2022-09-13T06:59:10.448Z,14.64
2022-09-13T07:01:43.650Z,14.80
2022-09-13T07:04:15.196Z,14.83
2022-09-13T07:06:48.102Z,14.92
2022-09-13T07:09:22.155Z,14.99
2022-09-13T07:11:53.182Z,15.02
2022-09-13T07:14:24.663Z,15.04
2022-09-13T07:16:53.421Z,15.04
2022-09-13T07:19:26.894Z,15.16
2022-09-13T07:21:56.803Z,15.14
2022-09-13T07:24:28.208Z,15.22
2022-09-13T07:26:56.059Z,15.24
2022-09-13T07:29:24.262Z,15.27
2022-09-13T07:31:54.736Z,15.28
2022-09-13T07:34:29.668Z,15.26
2022-09-13T07:36:57.676Z,15.42
2022-09-13T07:39:25.534Z,15.48
2022-09-13T07:41:53.901Z,15.60
2022-09-13T07:44:22.838Z,15.70
2022-09-13T07:46:50.646Z,15.76
2022-09-13T07:49:19.458Z,15.73
2022-09-13T07:52:06.227Z,15.80
2022-09-13T07:54:52.250Z,15.77
2022-09-13T07:57:38.853Z,15.80
2022-09-13T08:00:08.077Z,15.93
2022-09-13T08:02:39.783Z,16.12
2022-09-13T08:05:08.857Z,16.12
2022-09-13T08:07:36.903Z,16.05
2022-09-13T08:10:05.218Z,16.28
2022-09-13T08:12:32.995Z,16.44
2022-09-13T08:15:00.758Z,16.51
2022-09-13T08:17:29.304Z,16.73
2022-09-13T08:19:57.183Z,16.75
2022-09-13T08:22:24.921Z,16.86
2022-09-13T08:24:52.748Z,17.12
2022-09-13T08:27:20.542Z,17.46
2022-09-13T08:29:48.353Z,17.43
2022-09-13T08:32:16.367Z,17.24
2022-09-13T08:34:44.146Z,17.53
2022-09-13T08:37:12.972Z,17.71
2022-09-13T08:39:55.933Z,17.79
2022-09-13T08:43:06.298Z,17.79
2022-09-13T08:45:34.268Z,18.13
2022-09-13T08:48:14.719Z,18.18
2022-09-13T08:50:45.135Z,18.00
2022-09-13T08:53:36.035Z,18.25
2022-09-13T08:56:25.779Z,18.26
2022-09-13T08:59:57.984Z,18.55
2022-09-13T09:02:44.331Z,18.55
2022-09-13T09:05:47.849Z,18.81
2022-09-13T09:08:43.381Z,18.91
2022-09-13T09:11:35.242Z,18.71
2022-09-13T09:14:17.652Z,19.00
2022-09-13T09:16:51.602Z,19.06
2022-09-13T09:19:45.277Z,19.44
2022-09-13T09:22:24.820Z,20.01
2022-09-13T09:24:57.360Z,19.85
2022-09-13T09:27:25.914Z,19.73
2022-09-13T09:29:58.322Z,19.75
2022-09-13T09:32:25.992Z,20.00
2022-09-13T09:35:05.759Z,19.84
2022-09-13T09:37:37.102Z,20.28
2022-09-13T09:40:11.275Z,20.66
2022-09-13T09:42:49.316Z,20.35
2022-09-13T09:45:32.352Z,20.41
2022-09-13T09:48:07.765Z,20.34
2022-09-13T09:50:43.640Z,20.25
2022-09-13T09:53:43.512Z,20.34
2022-09-13T09:56:34.183Z,20.31
2022-09-13T09:59:02.633Z,20.43
2022-09-13T10:01:34.333Z,20.47
2022-09-13T10:04:11.495Z,20.73
2022-09-13T10:06:44.002Z,21.03
2022-09-13T10:09:15.854Z,20.99
2022-09-13T10:11:57.067Z,20.67
2022-09-13T10:14:44.896Z,21.08
2022-09-13T10:17:28.890Z,20.99
2022-09-13T10:20:27.374Z,21.29
2022-09-13T10:23:14.912Z,21.62
2022-09-13T10:25:47.955Z,21.83
2022-09-13T10:28:18.998Z,21.71
2022-09-13T10:31:04.943Z,21.70
2022-09-13T10:33:57.393Z,22.09
2022-09-13T10:36:57.236Z,22.07
2022-09-13T10:39:26.509Z,22.23
2022-09-13T10:42:10.103Z,22.03
2022-09-13T10:44:41.581Z,22.58
2022-09-13T10:47:27.540Z,22.36
2022-09-13T10:49:59.336Z,22.58
2022-09-13T10:52:48.133Z,22.55
2022-09-13T10:55:18.953Z,22.24
2022-09-13T10:57:49.309Z,22.16
2022-09-13T11:00:23.087Z,22.06
2022-09-13T11:03:15.375Z,22.55
2022-09-13T11:06:05.920Z,22.85
2022-09-13T11:09:03.900Z,22.83
2022-09-13T11:12:02.295Z,22.71
2022-09-13T11:14:36.021Z,22.89
2022-09-13T11:17:12.803Z,22.86
2022-09-13T11:20:03.860Z,22.89
2022-09-13T11:22:59.514Z,23.54
2022-09-13T11:25:55.265Z,23.68
2022-09-13T11:28:33.310Z,23.65
2022-09-13T11:31:41.237Z,23.85
2022-09-13T11:34:14.868Z,23.86
2022-09-13T11:36:58.197Z,23.09
2022-09-13T11:39:51.729Z,22.93
2022-09-13T11:43:13.789Z,23.39
2022-09-13T11:46:15.918Z,23.41
2022-09-13T11:49:25.453Z,23.82
2022-09-13T11:52:42.320Z,23.82
2022-09-13T11:55:34.258Z,25.07
2022-09-13T11:58:15.535Z,24.71
2022-09-13T12:01:25.742Z,24.86
2022-09-13T12:05:04.922Z,24.74
2022-09-13T12:08:05.381Z,24.54
2022-09-13T12:10:55.079Z,24.93
2022-09-13T12:13:30.937Z,24.81
2022-09-13T12:16:07.739Z,25.34
2022-09-13T12:18:43.825Z,25.85
2022-09-13T12:21:19.598Z,25.19
2022-09-13T12:24:13.282Z,25.10
2022-09-13T12:26:59.706Z,24.69
2022-09-13T12:29:50.799Z,24.75
2022-09-13T12:32:19.709Z,25.30
2022-09-13T12:35:09.473Z,24.90
2022-09-13T12:38:24.118Z,26.31
2022-09-13T12:41:35.695Z,24.86
2022-09-13T12:44:31.662Z,25.34
2022-09-13T12:47:47.519Z,25.12
2022-09-13T12:50:46.275Z,24.34
2022-09-13T12:53:41.913Z,24.88
2022-09-13T12:56:45.922Z,25.15
2022-09-13T12:59:22.742Z,25.77
2022-09-13T13:01:52.420Z,25.32
2022-09-13T13:04:31.375Z,25.57
2022-09-13T13:07:04.190Z,25.89
2022-09-13T13:09:42.612Z,25.62
2022-09-13T13:12:38.482Z,26.41
2022-09-13T13:15:15.741Z,26.59
2022-09-13T13:17:54.391Z,26.06
2022-09-13T13:20:45.093Z,26.34
2022-09-13T13:23:16.976Z,26.26
2022-09-13T13:26:10.127Z,25.70
2022-09-13T13:28:44.307Z,25.90
2022-09-13T13:31:24.281Z,26.58
2022-09-13T13:34:14.023Z,26.96
2022-09-13T13:36:41.725Z,26.29
2022-09-13T13:39:27.421Z,26.54
2022-09-13T13:42:20.934Z,26.48
2022-09-13T13:45:06.643Z,26.70
2022-09-13T13:47:34.521Z,26.29
2022-09-13T13:50:08.084Z,25.96
2022-09-13T13:53:06.273Z,26.01
2022-09-13T13:55:45.577Z,26.63
2022-09-13T13:58:45.021Z,27.96
2022-09-13T14:01:25.196Z,26.83
2022-09-13T14:04:11.928Z,27.60
2022-09-13T14:07:06.470Z,25.84
2022-09-13T14:10:52.510Z,25.62
2022-09-13T14:13:36.415Z,25.48
2022-09-13T14:16:37.266Z,25.44
2022-09-13T14:19:25.561Z,25.52
2022-09-13T14:22:16.598Z,25.71
2022-09-13T14:24:56.125Z,25.58
2022-09-13T14:27:34.522Z,25.44
2022-09-13T14:30:22.358Z,26.03
2022-09-13T14:32:55.591Z,26.22
2022-09-13T14:35:44.352Z,25.77
2022-09-13T14:38:30.959Z,25.46
2022-09-13T14:41:02.640Z,25.76
2022-09-13T14:43:31.513Z,26.09
2022-09-13T14:46:21.769Z,26.43
2022-09-13T14:49:03.763Z,27.09
2022-09-13T14:51:45.855Z,26.89
2022-09-13T14:54:48.578Z,25.84
2022-09-13T14:57:34.725Z,26.29
2022-09-13T15:00:14.922Z,25.73
2022-09-13T15:02:52.889Z,25.90
2022-09-13T15:05:24.742Z,26.52
2022-09-13T15:07:52.610Z,26.41
2022-09-13T15:10:32.618Z,26.31
2022-09-13T15:13:06.971Z,26.90
2022-09-13T15:15:43.025Z,26.79
2022-09-13T15:18:20.185Z,26.10
2022-09-13T15:20:47.974Z,26.13
2022-09-13T15:23:28.113Z,26.04
2022-09-13T15:26:07.761Z,25.62
2022-09-13T15:28:57.713Z,25.86
2022-09-13T15:31:29.227Z,26.13
2022-09-13T15:34:20.388Z,25.93
2022-09-13T15:37:11.162Z,26.04
2022-09-13T15:40:23.067Z,25.52
2022-09-13T15:42:52.882Z,25.68
2022-09-13T15:45:22.706Z,25.69
2022-09-13T15:47:52.807Z,25.63
2022-09-13T15:50:27.005Z,25.52
2022-09-13T15:53:01.818Z,25.46
2022-09-13T15:55:31.705Z,25.45
2022-09-13T15:57:59.445Z,25.42
2022-09-13T16:00:28.529Z,25.17
2022-09-13T16:02:56.720Z,24.85
2022-09-13T16:05:24.514Z,25.20
2022-09-13T16:07:54.054Z,25.02
2022-09-13T16:10:23.132Z,24.81
2022-09-13T16:12:51.664Z,24.96
2022-09-13T16:15:19.574Z,24.71
2022-09-13T16:17:47.709Z,24.55
2022-09-13T16:20:17.316Z,24.47
2022-09-13T16:22:45.252Z,24.50
2022-09-13T16:25:14.976Z,24.21
2022-09-13T16:27:44.783Z,24.24
2022-09-13T16:30:18.597Z,24.22
2022-09-13T16:32:46.835Z,24.19
2022-09-13T16:35:16.443Z,23.99
2022-09-13T16:37:44.607Z,24.12
2022-09-13T16:40:13.138Z,24.19
2022-09-13T16:42:40.977Z,24.01
2022-09-13T16:45:10.462Z,24.02
2022-09-13T16:47:39.256Z,23.94
2022-09-13T16:50:08.230Z,24.02
2022-09-13T16:52:37.179Z,23.92
2022-09-13T16:55:06.595Z,23.61
2022-09-13T16:57:34.593Z,23.60
2022-09-13T17:00:08.491Z,23.62
2022-09-13T17:02:36.669Z,23.55
2022-09-13T17:05:07.780Z,23.51
2022-09-13T17:07:37.133Z,23.31
2022-09-13T17:10:09.435Z,23.31
2022-09-13T17:12:37.273Z,23.24
2022-09-13T17:15:07.047Z,23.03
2022-09-13T17:17:36.370Z,23.02
2022-09-13T17:20:10.492Z,22.86
2022-09-13T17:22:38.756Z,22.73
2022-09-13T17:25:10.166Z,22.70
2022-09-13T17:27:38.145Z,22.70
2022-09-13T17:30:07.228Z,22.60
2022-09-13T17:32:35.177Z,22.42
2022-09-13T17:35:03.081Z,22.40
2022-09-13T17:37:31.309Z,22.36
2022-09-13T17:39:59.276Z,22.28
2022-09-13T17:42:27.274Z,22.08
2022-09-13T17:44:55.162Z,22.18
2022-09-13T17:47:23.040Z,22.04
2022-09-13T17:49:50.817Z,22.01
2022-09-13T17:52:18.545Z,21.96
2022-09-13T17:54:46.997Z,21.84
2022-09-13T17:57:15.647Z,21.72
2022-09-13T17:59:43.485Z,21.74
2022-09-13T18:02:11.394Z,21.58
2022-09-13T18:04:39.574Z,21.42
2022-09-13T18:07:07.743Z,21.44
2022-09-13T18:09:36.200Z,21.39
2022-09-13T18:12:04.124Z,21.35
2022-09-13T18:14:32.817Z,21.37
2022-09-13T18:17:01.165Z,21.18
2022-09-13T18:19:45.369Z,21.18
2022-09-13T18:22:14.663Z,21.13
2022-09-13T18:24:42.450Z,21.11
2022-09-13T18:27:10.237Z,21.07
2022-09-13T18:29:37.998Z,20.95
2022-09-13T18:32:06.214Z,20.94
2022-09-13T18:34:34.029Z,20.85
2022-09-13T18:37:01.911Z,20.78
2022-09-13T18:39:29.742Z,20.70
2022-09-13T18:41:57.557Z,20.62
2022-09-13T18:44:25.429Z,20.63
2022-09-13T18:46:54.219Z,20.62
2022-09-13T18:49:22.389Z,20.60
2022-09-13T18:51:50.177Z,20.64
2022-09-13T18:54:18.917Z,20.63
2022-09-13T18:56:48.065Z,20.57
2022-09-13T18:59:15.997Z,20.51
2022-09-13T19:01:45.363Z,20.51
2022-09-13T19:04:17.899Z,20.50
2022-09-13T19:06:52.187Z,20.51
2022-09-13T19:09:20.965Z,20.49
2022-09-13T19:11:52.294Z,20.43
2022-09-13T19:14:25.585Z,20.46
2022-09-13T19:16:56.820Z,20.37
2022-09-13T19:19:24.862Z,20.36
2022-09-13T19:21:52.664Z,20.30
2022-09-13T19:24:21.398Z,20.29
2022-09-13T19:26:51.922Z,20.34
2022-09-13T19:29:23.069Z,20.26
2022-09-13T19:31:52.866Z,20.21
2022-09-13T19:34:22.883Z,20.16
2022-09-13T19:36:57.821Z,20.20
2022-09-13T19:39:29.814Z,20.17
2022-09-13T19:42:01.591Z,20.19
2022-09-13T19:44:29.845Z,20.20
2022-09-13T19:47:36.373Z,20.18
2022-09-13T19:49:45.631Z,20.17
2022-09-13T19:52:13.424Z,20.25
2022-09-13T19:54:41.199Z,20.15
2022-09-13T19:57:09.896Z,20.12
2022-09-13T19:59:37.757Z,20.15
2022-09-13T20:02:05.580Z,20.03
2022-09-13T20:04:33.542Z,20.07
2022-09-13T20:07:01.446Z,20.09
2022-09-13T20:09:30.620Z,20.09
2022-09-13T20:12:00.588Z,20.00
2022-09-13T20:14:28.575Z,19.92
2022-09-13T20:16:57.258Z,19.98
2022-09-13T20:19:44.774Z,19.99
2022-09-13T20:22:31.852Z,19.87
2022-09-13T20:25:03.771Z,19.86
2022-09-13T20:27:32.729Z,19.85
2022-09-13T20:30:01.767Z,19.87
2022-09-13T20:32:31.057Z,19.87
2022-09-13T20:34:59.326Z,19.87
2022-09-13T20:37:28.227Z,19.92
2022-09-13T20:39:56.147Z,19.92
2022-09-13T20:42:24.612Z,19.92
2022-09-13T20:44:52.391Z,19.91
2022-09-13T20:47:20.259Z,19.90
2022-09-13T20:49:48.011Z,19.86
2022-09-13T20:52:15.924Z,19.86
2022-09-13T20:54:44.314Z,19.80
2022-09-13T20:57:12.073Z,19.80
2022-09-13T20:59:40.087Z,19.74
2022-09-13T21:02:09.004Z,19.65
2022-09-13T21:04:36.782Z,19.61
2022-09-13T21:07:23.474Z,19.62
2022-09-13T21:09:51.262Z,19.59
2022-09-13T21:12:19.035Z,19.58
2022-09-13T21:14:46.777Z,19.48
2022-09-13T21:17:14.662Z,19.45
2022-09-13T21:19:42.479Z,19.42
2022-09-13T21:22:11.341Z,19.43
2022-09-13T21:24:39.088Z,19.45
2022-09-13T21:27:07.569Z,19.41
2022-09-13T21:29:35.382Z,19.39
2022-09-13T21:32:03.334Z,19.37
2022-09-13T21:34:31.922Z,19.35
2022-09-13T21:36:59.694Z,19.33
2022-09-13T21:39:27.506Z,19.23
2022-09-13T21:41:55.402Z,19.23
2022-09-13T21:44:23.613Z,19.21
2022-09-13T21:46:51.642Z,19.18
2022-09-13T21:49:20.216Z,19.21
2022-09-13T21:51:49.752Z,19.24
2022-09-13T21:54:19.940Z,19.26
2022-09-13T21:56:54.098Z,19.19
2022-09-13T21:59:23.506Z,19.22
2022-09-13T22:01:54.117Z,19.21
2022-09-13T22:04:27.111Z,19.27
2022-09-13T22:06:55.677Z,19.26
2022-09-13T22:09:27.048Z,19.29
2022-09-13T22:11:56.639Z,19.28
2022-09-13T22:14:24.776Z,19.30
2022-09-13T22:16:53.387Z,19.37
2022-09-13T22:19:26.781Z,19.36
2022-09-13T22:21:59.322Z,19.37
2022-09-13T22:24:31.888Z,19.38
2022-09-13T22:27:00.301Z,19.34
2022-09-13T22:29:29.088Z,19.30
2022-09-13T22:31:56.938Z,19.35
2022-09-13T22:34:26.108Z,19.38
2022-09-13T22:36:55.398Z,19.34
2022-09-13T22:39:23.999Z,19.33
2022-09-13T22:41:51.989Z,19.28
2022-09-13T22:44:19.987Z,19.26
2022-09-13T22:46:48.066Z,19.25
2022-09-13T22:49:19.939Z,19.19
2022-09-13T22:51:48.615Z,19.16
2022-09-13T22:54:18.562Z,19.17
2022-09-13T22:56:46.649Z,19.10
2022-09-13T22:59:20.686Z,19.09
2022-09-13T23:01:49.491Z,19.06
2022-09-13T23:04:17.732Z,19.03
2022-09-13T23:06:45.842Z,19.07
2022-09-13T23:09:18.077Z,18.99
2022-09-13T23:11:47.311Z,19.05
2022-09-13T23:14:17.253Z,19.03
2022-09-13T23:16:51.206Z,19.01
2022-09-13T23:19:22.485Z,18.94
2022-09-13T23:21:53.658Z,18.91
2022-09-13T23:24:22.067Z,18.94
2022-09-13T23:26:50.060Z,18.87
2022-09-13T23:29:20.106Z,18.85
2022-09-13T23:31:48.355Z,18.84
2022-09-13T23:34:17.747Z,18.84
2022-09-13T23:36:46.733Z,18.88
2022-09-13T23:39:18.461Z,18.92
2022-09-13T23:41:48.809Z,18.93
2022-09-13T23:44:18.405Z,18.96
2022-09-13T23:46:46.224Z,18.96
2022-09-13T23:49:14.310Z,18.91
2022-09-13T23:51:42.098Z,18.88
2022-09-13T23:54:10.217Z,18.82
2022-09-13T23:56:38.053Z,18.61
2022-09-13T23:59:06.584Z,18.50
